sensor_id;sensor_type;location;lat;lon;timestamp;temperature;humidity
44565;DHT22;30275;51.822;-0.326;2023-02-22T00:00:37;6.50;99.90
44565;DHT22;30275;51.822;-0.326;2023-02-22T00:05:39;6.40;99.90
44565;DHT22;30275;51.822;-0.326;2023-02-22T00:08:06;6.50;99.90
44565;DHT22;30275;51.822;-0.326;2023-02-22T00:10:36;6.50;99.90
44565;DHT22;30275;51.822;-0.326;2023-02-22T00:13:03;6.40;99.90
44565;DHT22;30275;51.822;-0.326;2023-02-22T00:15:30;6.50;99.90
44565;DHT22;30275;51.822;-0.326;2023-02-22T00:17:56;6.40;99.90
44565;DHT22;30275;51.822;-0.326;2023-02-22T00:20:22;6.40;99.90
44565;DHT22;30275;51.822;-0.326;2023-02-22T00:22:49;6.40;99.90
44565;DHT22;30275;51.822;-0.326;2023-02-22T00:25:21;6.60;99.90
44565;DHT22;30275;51.822;-0.326;2023-02-22T00:27:48;6.70;99.90
44565;DHT22;30275;51.822;-0.326;2023-02-22T00:30:17;6.70;99.90
44565;DHT22;30275;51.822;-0.326;2023-02-22T00:32:47;6.70;99.90
44565;DHT22;30275;51.822;-0.326;2023-02-22T00:35:14;6.80;99.90
44565;DHT22;30275;51.822;-0.326;2023-02-22T00:37:40;6.90;99.90
44565;DHT22;30275;51.822;-0.326;2023-02-22T00:40:10;6.80;99.90
44565;DHT22;30275;51.822;-0.326;2023-02-22T00:42:36;6.80;99.90
44565;DHT22;30275;51.822;-0.326;2023-02-22T00:45:02;6.90;99.90
44565;DHT22;30275;51.822;-0.326;2023-02-22T00:47:28;6.90;99.90
44565;DHT22;30275;51.822;-0.326;2023-02-22T00:49:55;6.90;99.90
44565;DHT22;30275;51.822;-0.326;2023-02-22T00:52:20;6.60;99.90
44565;DHT22;30275;51.822;-0.326;2023-02-22T00:54:46;6.50;99.90
44565;DHT22;30275;51.822;-0.326;2023-02-22T00:57:12;6.50;99.90
44565;DHT22;30275;51.822;-0.326;2023-02-22T00:59:37;6.50;99.90
44565;DHT22;30275;51.822;-0.326;2023-02-22T01:02:03;6.60;99.90
44565;DHT22;30275;51.822;-0.326;2023-02-22T01:04:28;6.50;99.90
44565;DHT22;30275;51.822;-0.326;2023-02-22T01:06:54;6.60;99.90
44565;DHT22;30275;51.822;-0.326;2023-02-22T01:09:20;6.60;99.90
44565;DHT22;30275;51.822;-0.326;2023-02-22T01:11:47;6.40;99.90
44565;DHT22;30275;51.822;-0.326;2023-02-22T01:14:13;6.30;99.90
44565;DHT22;30275;51.822;-0.326;2023-02-22T01:16:39;6.30;99.90
44565;DHT22;30275;51.822;-0.326;2023-02-22T01:19:04;6.50;99.90
44565;DHT22;30275;51.822;-0.326;2023-02-22T01:21:30;6.50;99.90
44565;DHT22;30275;51.822;-0.326;2023-02-22T01:23:56;6.50;99.90
44565;DHT22;30275;51.822;-0.326;2023-02-22T01:26:22;6.70;99.90
44565;DHT22;30275;51.822;-0.326;2023-02-22T01:28:47;6.70;99.90
44565;DHT22;30275;51.822;-0.326;2023-02-22T01:31:13;6.90;99.90
44565;DHT22;30275;51.822;-0.326;2023-02-22T01:33:39;7.00;99.90
44565;DHT22;30275;51.822;-0.326;2023-02-22T01:36:05;7.00;99.90
44565;DHT22;30275;51.822;-0.326;2023-02-22T01:38:37;7.10;99.90
44565;DHT22;30275;51.822;-0.326;2023-02-22T01:41:03;7.00;99.90
44565;DHT22;30275;51.822;-0.326;2023-02-22T01:43:31;6.80;99.90
44565;DHT22;30275;51.822;-0.326;2023-02-22T01:46:03;6.60;99.90
44565;DHT22;30275;51.822;-0.326;2023-02-22T01:48:34;6.60;99.90
44565;DHT22;30275;51.822;-0.326;2023-02-22T01:51:10;6.60;99.90
44565;DHT22;30275;51.822;-0.326;2023-02-22T01:54:09;6.50;99.90
44565;DHT22;30275;51.822;-0.326;2023-02-22T01:56:39;6.50;99.90
44565;DHT22;30275;51.822;-0.326;2023-02-22T01:59:09;6.40;99.90
44565;DHT22;30275;51.822;-0.326;2023-02-22T02:01:37;6.30;99.90
44565;DHT22;30275;51.822;-0.326;2023-02-22T02:04:07;6.40;99.90
44565;DHT22;30275;51.822;-0.326;2023-02-22T02:06:35;6.20;99.90
44565;DHT22;30275;51.822;-0.326;2023-02-22T02:10:12;6.30;99.90
44565;DHT22;30275;51.822;-0.326;2023-02-22T02:12:08;6.30;99.90
44565;DHT22;30275;51.822;-0.326;2023-02-22T02:14:34;6.10;99.90
44565;DHT22;30275;51.822;-0.326;2023-02-22T02:17:06;6.10;99.90
44565;DHT22;30275;51.822;-0.326;2023-02-22T02:33:33;6.10;99.90
44565;DHT22;30275;51.822;-0.326;2023-02-22T02:38:58;6.20;99.90
44565;DHT22;30275;51.822;-0.326;2023-02-22T02:41:31;6.20;99.90
44565;DHT22;30275;51.822;-0.326;2023-02-22T02:47:12;6.20;99.90
44565;DHT22;30275;51.822;-0.326;2023-02-22T02:49:30;6.20;99.90
44565;DHT22;30275;51.822;-0.326;2023-02-22T02:51:59;6.20;99.90
44565;DHT22;30275;51.822;-0.326;2023-02-22T02:54:27;6.20;99.90
44565;DHT22;30275;51.822;-0.326;2023-02-22T02:56:55;6.30;99.90
44565;DHT22;30275;51.822;-0.326;2023-02-22T03:07:54;6.30;99.90
44565;DHT22;30275;51.822;-0.326;2023-02-22T03:10:37;6.40;99.90
44565;DHT22;30275;51.822;-0.326;2023-02-22T03:13:24;6.50;99.90
44565;DHT22;30275;51.822;-0.326;2023-02-22T03:16:14;6.50;99.90
44565;DHT22;30275;51.822;-0.326;2023-02-22T03:18:48;6.40;99.90
44565;DHT22;30275;51.822;-0.326;2023-02-22T03:27:05;6.40;99.90
44565;DHT22;30275;51.822;-0.326;2023-02-22T03:29:38;6.30;99.90
44565;DHT22;30275;51.822;-0.326;2023-02-22T03:32:10;6.20;99.90
44565;DHT22;30275;51.822;-0.326;2023-02-22T03:34:47;6.20;99.90
44565;DHT22;30275;51.822;-0.326;2023-02-22T03:37:22;6.20;99.90
44565;DHT22;30275;51.822;-0.326;2023-02-22T03:39:51;6.30;99.90
44565;DHT22;30275;51.822;-0.326;2023-02-22T03:42:30;6.40;99.90
44565;DHT22;30275;51.822;-0.326;2023-02-22T03:44:59;6.50;99.90
44565;DHT22;30275;51.822;-0.326;2023-02-22T03:47:37;6.60;99.90
44565;DHT22;30275;51.822;-0.326;2023-02-22T03:50:25;6.50;99.90
44565;DHT22;30275;51.822;-0.326;2023-02-22T03:52:54;6.50;99.90
44565;DHT22;30275;51.822;-0.326;2023-02-22T03:55:20;6.60;99.90
44565;DHT22;30275;51.822;-0.326;2023-02-22T03:57:54;6.60;99.90
44565;DHT22;30275;51.822;-0.326;2023-02-22T04:00:25;6.50;99.90
44565;DHT22;30275;51.822;-0.326;2023-02-22T04:02:52;6.60;99.90
44565;DHT22;30275;51.822;-0.326;2023-02-22T04:05:18;6.50;99.90
44565;DHT22;30275;51.822;-0.326;2023-02-22T04:07:44;6.50;99.90
44565;DHT22;30275;51.822;-0.326;2023-02-22T04:10:11;6.40;99.90
44565;DHT22;30275;51.822;-0.326;2023-02-22T04:12:37;6.50;99.90
44565;DHT22;30275;51.822;-0.326;2023-02-22T04:15:04;6.50;99.90
44565;DHT22;30275;51.822;-0.326;2023-02-22T04:17:30;6.40;99.90
44565;DHT22;30275;51.822;-0.326;2023-02-22T04:19:56;6.40;99.90
44565;DHT22;30275;51.822;-0.326;2023-02-22T04:22:22;6.40;99.90
44565;DHT22;30275;51.822;-0.326;2023-02-22T04:24:47;6.40;99.90
44565;DHT22;30275;51.822;-0.326;2023-02-22T04:27:14;6.40;99.90
44565;DHT22;30275;51.822;-0.326;2023-02-22T04:29:39;6.40;99.90
44565;DHT22;30275;51.822;-0.326;2023-02-22T04:32:05;6.40;99.90
44565;DHT22;30275;51.822;-0.326;2023-02-22T04:34:30;6.40;99.90
44565;DHT22;30275;51.822;-0.326;2023-02-22T04:36:56;6.50;99.90
44565;DHT22;30275;51.822;-0.326;2023-02-22T04:39:22;6.50;99.90
44565;DHT22;30275;51.822;-0.326;2023-02-22T04:41:47;6.50;99.90
44565;DHT22;30275;51.822;-0.326;2023-02-22T04:44:13;6.60;99.90
44565;DHT22;30275;51.822;-0.326;2023-02-22T04:49:20;6.60;99.90
44565;DHT22;30275;51.822;-0.326;2023-02-22T04:51:46;6.60;99.90
44565;DHT22;30275;51.822;-0.326;2023-02-22T04:54:11;6.60;99.90
44565;DHT22;30275;51.822;-0.326;2023-02-22T04:56:38;6.60;99.90
44565;DHT22;30275;51.822;-0.326;2023-02-22T04:59:03;6.60;99.90
44565;DHT22;30275;51.822;-0.326;2023-02-22T05:01:33;6.60;99.90
44565;DHT22;30275;51.822;-0.326;2023-02-22T05:04:04;6.60;99.90
44565;DHT22;30275;51.822;-0.326;2023-02-22T05:06:29;6.60;99.90
44565;DHT22;30275;51.822;-0.326;2023-02-22T05:08:55;6.60;99.90
44565;DHT22;30275;51.822;-0.326;2023-02-22T05:11:21;6.60;99.90
44565;DHT22;30275;51.822;-0.326;2023-02-22T05:13:47;6.70;99.90
44565;DHT22;30275;51.822;-0.326;2023-02-22T05:16:13;6.60;99.90
44565;DHT22;30275;51.822;-0.326;2023-02-22T05:18:38;6.70;99.90
44565;DHT22;30275;51.822;-0.326;2023-02-22T05:21:04;6.70;99.90
44565;DHT22;30275;51.822;-0.326;2023-02-22T05:23:31;6.70;99.90
44565;DHT22;30275;51.822;-0.326;2023-02-22T05:25:57;6.70;99.90
44565;DHT22;30275;51.822;-0.326;2023-02-22T05:28:22;6.80;99.90
44565;DHT22;30275;51.822;-0.326;2023-02-22T05:30:48;6.80;99.90
44565;DHT22;30275;51.822;-0.326;2023-02-22T05:33:14;6.70;99.90
44565;DHT22;30275;51.822;-0.326;2023-02-22T05:35:39;6.80;99.90
44565;DHT22;30275;51.822;-0.326;2023-02-22T05:38:05;6.90;99.90
44565;DHT22;30275;51.822;-0.326;2023-02-22T05:40:31;6.80;99.90
44565;DHT22;30275;51.822;-0.326;2023-02-22T05:42:58;6.90;99.90
44565;DHT22;30275;51.822;-0.326;2023-02-22T05:45:25;6.90;99.90
44565;DHT22;30275;51.822;-0.326;2023-02-22T05:47:52;6.90;99.90
44565;DHT22;30275;51.822;-0.326;2023-02-22T05:50:18;7.00;99.90
44565;DHT22;30275;51.822;-0.326;2023-02-22T05:52:44;7.00;99.90
44565;DHT22;30275;51.822;-0.326;2023-02-22T05:55:12;6.90;99.90
44565;DHT22;30275;51.822;-0.326;2023-02-22T05:57:38;7.00;99.90
44565;DHT22;30275;51.822;-0.326;2023-02-22T06:00:05;7.00;99.90
44565;DHT22;30275;51.822;-0.326;2023-02-22T06:02:32;7.00;99.90
44565;DHT22;30275;51.822;-0.326;2023-02-22T06:04:57;7.00;99.90
44565;DHT22;30275;51.822;-0.326;2023-02-22T06:07:24;7.00;99.90
44565;DHT22;30275;51.822;-0.326;2023-02-22T06:09:49;7.10;99.90
44565;DHT22;30275;51.822;-0.326;2023-02-22T06:12:15;7.10;99.90
44565;DHT22;30275;51.822;-0.326;2023-02-22T06:14:42;7.10;99.90
44565;DHT22;30275;51.822;-0.326;2023-02-22T06:17:12;7.10;99.90
44565;DHT22;30275;51.822;-0.326;2023-02-22T06:19:38;7.10;99.90
44565;DHT22;30275;51.822;-0.326;2023-02-22T06:22:05;7.10;99.90
44565;DHT22;30275;51.822;-0.326;2023-02-22T06:24:31;7.10;99.90
44565;DHT22;30275;51.822;-0.326;2023-02-22T06:27:00;7.00;99.90
44565;DHT22;30275;51.822;-0.326;2023-02-22T06:29:27;7.10;99.90
44565;DHT22;30275;51.822;-0.326;2023-02-22T06:31:53;7.00;99.90
44565;DHT22;30275;51.822;-0.326;2023-02-22T06:34:19;7.10;99.90
44565;DHT22;30275;51.822;-0.326;2023-02-22T06:36:46;7.10;99.90
44565;DHT22;30275;51.822;-0.326;2023-02-22T06:39:13;7.10;99.90
44565;DHT22;30275;51.822;-0.326;2023-02-22T06:41:44;7.10;99.90
44565;DHT22;30275;51.822;-0.326;2023-02-22T06:44:10;7.00;99.90
44565;DHT22;30275;51.822;-0.326;2023-02-22T06:46:36;7.00;99.90
44565;DHT22;30275;51.822;-0.326;2023-02-22T06:49:02;6.90;99.90
44565;DHT22;30275;51.822;-0.326;2023-02-22T06:51:29;6.90;99.90
44565;DHT22;30275;51.822;-0.326;2023-02-22T06:53:56;6.90;99.90
44565;DHT22;30275;51.822;-0.326;2023-02-22T06:56:22;6.90;99.90
44565;DHT22;30275;51.822;-0.326;2023-02-22T06:58:48;6.80;99.90
44565;DHT22;30275;51.822;-0.326;2023-02-22T07:01:15;6.80;99.90
44565;DHT22;30275;51.822;-0.326;2023-02-22T07:03:41;6.70;99.90
44565;DHT22;30275;51.822;-0.326;2023-02-22T07:06:08;6.60;99.90
44565;DHT22;30275;51.822;-0.326;2023-02-22T07:08:35;6.60;99.90
44565;DHT22;30275;51.822;-0.326;2023-02-22T07:11:02;6.60;99.90
44565;DHT22;30275;51.822;-0.326;2023-02-22T07:13:27;6.70;99.90
44565;DHT22;30275;51.822;-0.326;2023-02-22T07:15:54;6.80;99.90
44565;DHT22;30275;51.822;-0.326;2023-02-22T07:18:20;6.80;99.90
44565;DHT22;30275;51.822;-0.326;2023-02-22T07:20:46;6.80;99.90
44565;DHT22;30275;51.822;-0.326;2023-02-22T07:23:14;6.90;99.90
44565;DHT22;30275;51.822;-0.326;2023-02-22T07:25:40;6.90;99.90
44565;DHT22;30275;51.822;-0.326;2023-02-22T07:28:05;7.00;99.90
44565;DHT22;30275;51.822;-0.326;2023-02-22T07:30:32;7.00;99.90
44565;DHT22;30275;51.822;-0.326;2023-02-22T07:33:09;7.10;99.90
44565;DHT22;30275;51.822;-0.326;2023-02-22T07:35:38;7.10;99.90
44565;DHT22;30275;51.822;-0.326;2023-02-22T07:38:05;7.20;99.90
44565;DHT22;30275;51.822;-0.326;2023-02-22T07:40:33;7.10;99.90
44565;DHT22;30275;51.822;-0.326;2023-02-22T07:43:01;7.10;99.90
44565;DHT22;30275;51.822;-0.326;2023-02-22T07:45:29;7.10;99.90
44565;DHT22;30275;51.822;-0.326;2023-02-22T07:47:56;7.00;99.90
44565;DHT22;30275;51.822;-0.326;2023-02-22T07:50:23;7.00;99.90
44565;DHT22;30275;51.822;-0.326;2023-02-22T07:52:51;7.00;99.90
44565;DHT22;30275;51.822;-0.326;2023-02-22T07:55:20;7.00;99.90
44565;DHT22;30275;51.822;-0.326;2023-02-22T07:57:48;7.10;99.90
44565;DHT22;30275;51.822;-0.326;2023-02-22T08:00:20;7.10;99.90
44565;DHT22;30275;51.822;-0.326;2023-02-22T08:02:46;7.10;99.90
44565;DHT22;30275;51.822;-0.326;2023-02-22T08:05:13;7.20;99.90
44565;DHT22;30275;51.822;-0.326;2023-02-22T08:07:40;7.30;99.90
44565;DHT22;30275;51.822;-0.326;2023-02-22T08:10:08;7.10;99.90
44565;DHT22;30275;51.822;-0.326;2023-02-22T08:12:34;7.10;99.90
44565;DHT22;30275;51.822;-0.326;2023-02-22T08:15:01;7.20;99.90
44565;DHT22;30275;51.822;-0.326;2023-02-22T08:17:27;7.30;99.90
44565;DHT22;30275;51.822;-0.326;2023-02-22T08:19:52;7.20;99.90
44565;DHT22;30275;51.822;-0.326;2023-02-22T08:22:18;7.30;99.90
44565;DHT22;30275;51.822;-0.326;2023-02-22T08:24:44;7.30;99.90
44565;DHT22;30275;51.822;-0.326;2023-02-22T08:27:09;7.20;99.90
44565;DHT22;30275;51.822;-0.326;2023-02-22T08:29:35;7.20;99.90
44565;DHT22;30275;51.822;-0.326;2023-02-22T08:32:00;7.10;99.90
44565;DHT22;30275;51.822;-0.326;2023-02-22T08:34:26;7.30;99.90
44565;DHT22;30275;51.822;-0.326;2023-02-22T08:36:53;7.30;99.90
44565;DHT22;30275;51.822;-0.326;2023-02-22T08:39:18;7.40;99.90
44565;DHT22;30275;51.822;-0.326;2023-02-22T08:41:44;7.50;99.90
44565;DHT22;30275;51.822;-0.326;2023-02-22T08:44:10;7.60;99.90
44565;DHT22;30275;51.822;-0.326;2023-02-22T08:46:35;7.50;99.90
44565;DHT22;30275;51.822;-0.326;2023-02-22T08:49:01;7.40;99.90
44565;DHT22;30275;51.822;-0.326;2023-02-22T08:51:27;7.40;99.90
44565;DHT22;30275;51.822;-0.326;2023-02-22T08:53:53;7.40;99.90
44565;DHT22;30275;51.822;-0.326;2023-02-22T08:56:19;7.50;99.90
44565;DHT22;30275;51.822;-0.326;2023-02-22T08:58:45;7.60;99.90
44565;DHT22;30275;51.822;-0.326;2023-02-22T09:01:11;7.70;99.90
44565;DHT22;30275;51.822;-0.326;2023-02-22T09:03:36;7.80;99.90
44565;DHT22;30275;51.822;-0.326;2023-02-22T09:06:03;7.70;99.90
44565;DHT22;30275;51.822;-0.326;2023-02-22T09:08:29;7.70;99.90
44565;DHT22;30275;51.822;-0.326;2023-02-22T09:10:54;7.70;99.90
44565;DHT22;30275;51.822;-0.326;2023-02-22T09:13:20;7.70;99.90
44565;DHT22;30275;51.822;-0.326;2023-02-22T09:15:46;7.80;99.90
44565;DHT22;30275;51.822;-0.326;2023-02-22T09:18:12;7.90;99.90
44565;DHT22;30275;51.822;-0.326;2023-02-22T09:20:42;8.00;99.90
44565;DHT22;30275;51.822;-0.326;2023-02-22T09:23:08;8.10;99.90
44565;DHT22;30275;51.822;-0.326;2023-02-22T09:25:34;8.30;99.90
44565;DHT22;30275;51.822;-0.326;2023-02-22T09:28:00;8.50;99.90
44565;DHT22;30275;51.822;-0.326;2023-02-22T09:30:30;8.60;99.90
44565;DHT22;30275;51.822;-0.326;2023-02-22T09:32:59;8.60;99.90
44565;DHT22;30275;51.822;-0.326;2023-02-22T09:35:25;8.80;99.90
44565;DHT22;30275;51.822;-0.326;2023-02-22T09:37:55;8.90;99.90
44565;DHT22;30275;51.822;-0.326;2023-02-22T09:40:22;8.80;99.90
44565;DHT22;30275;51.822;-0.326;2023-02-22T09:46:40;8.70;99.90
44565;DHT22;30275;51.822;-0.326;2023-02-22T09:51:46;8.60;99.90
44565;DHT22;30275;51.822;-0.326;2023-02-22T09:54:22;8.80;99.90
44565;DHT22;30275;51.822;-0.326;2023-02-22T09:56:52;9.00;99.90
44565;DHT22;30275;51.822;-0.326;2023-02-22T09:59:26;9.10;99.90
44565;DHT22;30275;51.822;-0.326;2023-02-22T10:05:11;9.10;99.90
44565;DHT22;30275;51.822;-0.326;2023-02-22T10:07:42;9.00;99.90
44565;DHT22;30275;51.822;-0.326;2023-02-22T10:10:16;8.90;99.90
44565;DHT22;30275;51.822;-0.326;2023-02-22T10:13:08;8.90;99.90
44565;DHT22;30275;51.822;-0.326;2023-02-22T10:18:41;8.80;99.90
44565;DHT22;30275;51.822;-0.326;2023-02-22T10:24:26;8.60;99.90
44565;DHT22;30275;51.822;-0.326;2023-02-22T10:26:57;8.60;99.90
44565;DHT22;30275;51.822;-0.326;2023-02-22T10:31:57;8.50;99.90
44565;DHT22;30275;51.822;-0.326;2023-02-22T10:34:25;8.60;99.90
44565;DHT22;30275;51.822;-0.326;2023-02-22T10:39:44;8.80;99.90
44565;DHT22;30275;51.822;-0.326;2023-02-22T10:42:12;8.80;99.90
44565;DHT22;30275;51.822;-0.326;2023-02-22T10:44:38;8.70;99.90
44565;DHT22;30275;51.822;-0.326;2023-02-22T10:47:08;8.60;99.90
44565;DHT22;30275;51.822;-0.326;2023-02-22T10:49:48;8.60;99.90
44565;DHT22;30275;51.822;-0.326;2023-02-22T10:52:29;8.50;99.90
44565;DHT22;30275;51.822;-0.326;2023-02-22T10:54:57;8.40;99.90
44565;DHT22;30275;51.822;-0.326;2023-02-22T10:57:29;8.40;99.90
44565;DHT22;30275;51.822;-0.326;2023-02-22T10:59:56;8.50;99.90
44565;DHT22;30275;51.822;-0.326;2023-02-22T11:02:33;8.60;99.90
44565;DHT22;30275;51.822;-0.326;2023-02-22T11:05:02;8.50;99.90
44565;DHT22;30275;51.822;-0.326;2023-02-22T11:07:31;8.50;99.90
44565;DHT22;30275;51.822;-0.326;2023-02-22T11:09:59;8.60;99.90
44565;DHT22;30275;51.822;-0.326;2023-02-22T11:12:28;8.50;99.90
44565;DHT22;30275;51.822;-0.326;2023-02-22T11:14:54;8.60;99.90
44565;DHT22;30275;51.822;-0.326;2023-02-22T11:17:30;8.50;99.90
44565;DHT22;30275;51.822;-0.326;2023-02-22T11:19:57;8.40;99.90
44565;DHT22;30275;51.822;-0.326;2023-02-22T11:22:27;8.40;99.90
44565;DHT22;30275;51.822;-0.326;2023-02-22T11:25:00;8.50;99.90
44565;DHT22;30275;51.822;-0.326;2023-02-22T11:27:38;8.60;99.90
44565;DHT22;30275;51.822;-0.326;2023-02-22T11:32:44;8.60;99.90
44565;DHT22;30275;51.822;-0.326;2023-02-22T11:35:53;8.50;99.90
44565;DHT22;30275;51.822;-0.326;2023-02-22T11:38:24;8.40;99.90
44565;DHT22;30275;51.822;-0.326;2023-02-22T11:43:33;8.60;99.90
44565;DHT22;30275;51.822;-0.326;2023-02-22T11:48:54;8.80;99.90
44565;DHT22;30275;51.822;-0.326;2023-02-22T11:57:08;9.00;99.90
44565;DHT22;30275;51.822;-0.326;2023-02-22T12:05:42;8.90;99.90
44565;DHT22;30275;51.822;-0.326;2023-02-22T12:08:22;8.90;99.90
44565;DHT22;30275;51.822;-0.326;2023-02-22T12:14:00;9.00;99.90
44565;DHT22;30275;51.822;-0.326;2023-02-22T12:21:43;9.30;99.90
44565;DHT22;30275;51.822;-0.326;2023-02-22T12:24:15;9.30;99.90
44565;DHT22;30275;51.822;-0.326;2023-02-22T12:26:49;9.40;99.90
44565;DHT22;30275;51.822;-0.326;2023-02-22T12:29:41;9.50;99.90
44565;DHT22;30275;51.822;-0.326;2023-02-22T12:35:03;9.60;99.90
44565;DHT22;30275;51.822;-0.326;2023-02-22T12:37:41;9.90;99.90
44565;DHT22;30275;51.822;-0.326;2023-02-22T12:43:48;10.00;99.90
44565;DHT22;30275;51.822;-0.326;2023-02-22T12:46:22;10.10;99.90
44565;DHT22;30275;51.822;-0.326;2023-02-22T12:49:16;10.10;99.90
44565;DHT22;30275;51.822;-0.326;2023-02-22T12:57:37;9.80;99.90
44565;DHT22;30275;51.822;-0.326;2023-02-22T13:00:13;9.80;99.90
44565;DHT22;30275;51.822;-0.326;2023-02-22T13:05:39;9.50;99.90
44565;DHT22;30275;51.822;-0.326;2023-02-22T13:24:13;10.10;99.90
44565;DHT22;30275;51.822;-0.326;2023-02-22T13:29:31;10.20;99.90
44565;DHT22;30275;51.822;-0.326;2023-02-22T13:32:02;10.20;99.90
44565;DHT22;30275;51.822;-0.326;2023-02-22T13:34:38;10.00;99.90
44565;DHT22;30275;51.822;-0.326;2023-02-22T13:50:48;9.30;99.90
44565;DHT22;30275;51.822;-0.326;2023-02-22T13:53:23;9.50;99.90
44565;DHT22;30275;51.822;-0.326;2023-02-22T13:55:53;9.90;99.90
44565;DHT22;30275;51.822;-0.326;2023-02-22T13:58:21;10.20;99.90
44565;DHT22;30275;51.822;-0.326;2023-02-22T14:00:50;10.10;99.90
44565;DHT22;30275;51.822;-0.326;2023-02-22T14:03:36;10.20;99.90
44565;DHT22;30275;51.822;-0.326;2023-02-22T14:06:07;10.10;99.90
44565;DHT22;30275;51.822;-0.326;2023-02-22T14:13:31;10.10;99.90
44565;DHT22;30275;51.822;-0.326;2023-02-22T14:18:46;9.30;99.90
44565;DHT22;30275;51.822;-0.326;2023-02-22T14:21:19;9.10;99.90
44565;DHT22;30275;51.822;-0.326;2023-02-22T14:23:45;9.10;99.90
44565;DHT22;30275;51.822;-0.326;2023-02-22T14:26:52;9.00;99.90
44565;DHT22;30275;51.822;-0.326;2023-02-22T14:29:19;8.90;99.90
44565;DHT22;30275;51.822;-0.326;2023-02-22T14:35:01;9.00;99.90
44565;DHT22;30275;51.822;-0.326;2023-02-22T14:37:26;9.00;99.90
44565;DHT22;30275;51.822;-0.326;2023-02-22T14:40:03;9.00;99.90
44565;DHT22;30275;51.822;-0.326;2023-02-22T14:42:49;9.00;99.90
44565;DHT22;30275;51.822;-0.326;2023-02-22T14:45:25;9.10;99.90
44565;DHT22;30275;51.822;-0.326;2023-02-22T14:50:51;9.40;99.90
44565;DHT22;30275;51.822;-0.326;2023-02-22T14:55:57;9.40;99.90
44565;DHT22;30275;51.822;-0.326;2023-02-22T14:58:47;9.30;99.90
44565;DHT22;30275;51.822;-0.326;2023-02-22T15:03:47;9.70;99.90
44565;DHT22;30275;51.822;-0.326;2023-02-22T15:06:21;10.00;99.90
44565;DHT22;30275;51.822;-0.326;2023-02-22T15:09:02;10.30;99.90
44565;DHT22;30275;51.822;-0.326;2023-02-22T15:11:30;10.50;99.90
44565;DHT22;30275;51.822;-0.326;2023-02-22T15:13:58;10.60;99.90
44565;DHT22;30275;51.822;-0.326;2023-02-22T15:16:29;10.40;99.90
44565;DHT22;30275;51.822;-0.326;2023-02-22T15:18:58;10.60;99.90
44565;DHT22;30275;51.822;-0.326;2023-02-22T15:21:27;10.60;99.90
44565;DHT22;30275;51.822;-0.326;2023-02-22T15:23:59;10.70;99.90
44565;DHT22;30275;51.822;-0.326;2023-02-22T15:28:59;10.70;99.90
44565;DHT22;30275;51.822;-0.326;2023-02-22T15:31:31;10.80;99.90
44565;DHT22;30275;51.822;-0.326;2023-02-22T15:34:09;10.80;99.90
44565;DHT22;30275;51.822;-0.326;2023-02-22T15:36:35;10.80;99.90
44565;DHT22;30275;51.822;-0.326;2023-02-22T15:39:00;10.60;99.90
44565;DHT22;30275;51.822;-0.326;2023-02-22T15:41:32;10.40;99.90
44565;DHT22;30275;51.822;-0.326;2023-02-22T15:44:08;10.30;99.90
44565;DHT22;30275;51.822;-0.326;2023-02-22T15:46:38;10.30;99.90
44565;DHT22;30275;51.822;-0.326;2023-02-22T15:51:41;9.90;99.90
44565;DHT22;30275;51.822;-0.326;2023-02-22T15:54:07;9.80;99.90
44565;DHT22;30275;51.822;-0.326;2023-02-22T15:56:35;9.70;99.90
44565;DHT22;30275;51.822;-0.326;2023-02-22T15:59:11;9.70;99.90
44565;DHT22;30275;51.822;-0.326;2023-02-22T16:01:40;9.80;99.90
44565;DHT22;30275;51.822;-0.326;2023-02-22T16:04:06;9.80;99.90
44565;DHT22;30275;51.822;-0.326;2023-02-22T16:06:40;9.80;99.90
44565;DHT22;30275;51.822;-0.326;2023-02-22T16:11:44;9.60;99.90
44565;DHT22;30275;51.822;-0.326;2023-02-22T16:16:48;9.60;99.90
44565;DHT22;30275;51.822;-0.326;2023-02-22T16:19:25;9.60;99.90
44565;DHT22;30275;51.822;-0.326;2023-02-22T16:21:57;9.40;99.90
44565;DHT22;30275;51.822;-0.326;2023-02-22T16:24:35;9.20;99.90
44565;DHT22;30275;51.822;-0.326;2023-02-22T16:27:06;9.20;99.90
44565;DHT22;30275;51.822;-0.326;2023-02-22T16:29:40;9.20;99.90
44565;DHT22;30275;51.822;-0.326;2023-02-22T16:32:06;9.20;99.90
44565;DHT22;30275;51.822;-0.326;2023-02-22T16:34:32;9.30;99.90
44565;DHT22;30275;51.822;-0.326;2023-02-22T16:36:58;9.40;99.90
44565;DHT22;30275;51.822;-0.326;2023-02-22T16:39:27;9.50;99.90
44565;DHT22;30275;51.822;-0.326;2023-02-22T16:41:59;9.50;99.90
44565;DHT22;30275;51.822;-0.326;2023-02-22T16:44:25;9.60;99.90
44565;DHT22;30275;51.822;-0.326;2023-02-22T16:46:57;9.70;99.90
44565;DHT22;30275;51.822;-0.326;2023-02-22T16:49:23;9.90;99.90
44565;DHT22;30275;51.822;-0.326;2023-02-22T16:51:54;9.80;99.90
44565;DHT22;30275;51.822;-0.326;2023-02-22T16:54:37;9.80;99.90
44565;DHT22;30275;51.822;-0.326;2023-02-22T16:57:04;9.70;99.90
44565;DHT22;30275;51.822;-0.326;2023-02-22T16:59:37;9.70;99.90
44565;DHT22;30275;51.822;-0.326;2023-02-22T17:02:04;9.70;99.90
44565;DHT22;30275;51.822;-0.326;2023-02-22T17:04:32;9.70;99.90
44565;DHT22;30275;51.822;-0.326;2023-02-22T17:06:58;9.60;99.90
44565;DHT22;30275;51.822;-0.326;2023-02-22T17:09:24;9.60;99.90
44565;DHT22;30275;51.822;-0.326;2023-02-22T17:11:51;9.50;99.90
44565;DHT22;30275;51.822;-0.326;2023-02-22T17:14:20;9.30;99.90
44565;DHT22;30275;51.822;-0.326;2023-02-22T17:16:50;9.20;99.90
44565;DHT22;30275;51.822;-0.326;2023-02-22T17:19:21;9.00;99.90
44565;DHT22;30275;51.822;-0.326;2023-02-22T17:21:48;8.80;99.90
44565;DHT22;30275;51.822;-0.326;2023-02-22T17:24:17;8.70;99.90
44565;DHT22;30275;51.822;-0.326;2023-02-22T17:26:44;8.60;99.90
44565;DHT22;30275;51.822;-0.326;2023-02-22T17:29:10;8.60;99.90
44565;DHT22;30275;51.822;-0.326;2023-02-22T17:31:37;8.30;99.90
44565;DHT22;30275;51.822;-0.326;2023-02-22T17:34:04;8.20;99.90
44565;DHT22;30275;51.822;-0.326;2023-02-22T17:36:30;8.10;99.90
44565;DHT22;30275;51.822;-0.326;2023-02-22T17:38:57;8.10;99.90
44565;DHT22;30275;51.822;-0.326;2023-02-22T17:41:23;8.00;99.90
44565;DHT22;30275;51.822;-0.326;2023-02-22T17:43:49;7.90;99.90
44565;DHT22;30275;51.822;-0.326;2023-02-22T17:46:15;7.70;99.90
44565;DHT22;30275;51.822;-0.326;2023-02-22T17:48:40;7.60;99.90
44565;DHT22;30275;51.822;-0.326;2023-02-22T17:51:08;7.40;99.90
44565;DHT22;30275;51.822;-0.326;2023-02-22T17:53:34;7.30;99.90
44565;DHT22;30275;51.822;-0.326;2023-02-22T17:56:11;7.30;99.90
44565;DHT22;30275;51.822;-0.326;2023-02-22T17:58:40;7.00;99.90
44565;DHT22;30275;51.822;-0.326;2023-02-22T18:01:26;7.00;99.90
44565;DHT22;30275;51.822;-0.326;2023-02-22T18:03:54;6.90;99.90
44565;DHT22;30275;51.822;-0.326;2023-02-22T18:06:22;6.90;99.90
44565;DHT22;30275;51.822;-0.326;2023-02-22T18:08:54;6.80;99.90
44565;DHT22;30275;51.822;-0.326;2023-02-22T18:11:23;6.70;99.90
44565;DHT22;30275;51.822;-0.326;2023-02-22T18:13:53;6.70;99.90
44565;DHT22;30275;51.822;-0.326;2023-02-22T18:16:21;6.70;99.90
44565;DHT22;30275;51.822;-0.326;2023-02-22T18:18:46;6.60;99.90
44565;DHT22;30275;51.822;-0.326;2023-02-22T18:21:16;6.60;99.90
44565;DHT22;30275;51.822;-0.326;2023-02-22T18:23:42;6.60;99.90
44565;DHT22;30275;51.822;-0.326;2023-02-22T18:26:14;6.60;99.90
44565;DHT22;30275;51.822;-0.326;2023-02-22T18:28:40;6.50;99.90